sensor_id;sensor_type;location;lat;lon;timestamp;P1;durP1;ratioP1;P2;durP2;ratioP2
12861;SDS011;6499;66.348;14.134;2023-03-25T00:00:26;1.03;;;0.73;;
12861;SDS011;6499;66.348;14.134;2023-03-25T00:02:54;1.10;;;0.70;;
12861;SDS011;6499;66.348;14.134;2023-03-25T00:05:21;0.77;;;0.60;;
12861;SDS011;6499;66.348;14.134;2023-03-25T00:07:47;1.60;;;0.60;;
12861;SDS011;6499;66.348;14.134;2023-03-25T00:10:14;0.80;;;0.80;;
12861;SDS011;6499;66.348;14.134;2023-03-25T00:12:41;0.80;;;0.70;;
12861;SDS011;6499;66.348;14.134;2023-03-25T00:15:09;0.77;;;0.60;;
12861;SDS011;6499;66.348;14.134;2023-03-25T00:17:37;1.00;;;0.60;;
12861;SDS011;6499;66.348;14.134;2023-03-25T00:20:03;1.13;;;0.80;;
12861;SDS011;6499;66.348;14.134;2023-03-25T00:22:37;0.70;;;0.70;;
12861;SDS011;6499;66.348;14.134;2023-03-25T00:25:05;1.77;;;0.80;;
12861;SDS011;6499;66.348;14.134;2023-03-25T00:27:32;1.87;;;0.60;;
12861;SDS011;6499;66.348;14.134;2023-03-25T00:29:58;0.90;;;0.73;;
12861;SDS011;6499;66.348;14.134;2023-03-25T00:32:26;1.40;;;0.70;;
12861;SDS011;6499;66.348;14.134;2023-03-25T00:34:53;0.80;;;0.80;;
12861;SDS011;6499;66.348;14.134;2023-03-25T00:37:20;1.20;;;0.70;;
12861;SDS011;6499;66.348;14.134;2023-03-25T00:39:46;1.00;;;0.60;;
12861;SDS011;6499;66.348;14.134;2023-03-25T00:42:14;0.87;;;0.50;;
12861;SDS011;6499;66.348;14.134;2023-03-25T00:44:40;0.60;;;0.60;;
12861;SDS011;6499;66.348;14.134;2023-03-25T00:47:07;0.53;;;0.53;;
12861;SDS011;6499;66.348;14.134;2023-03-25T00:49:40;0.93;;;0.60;;
12861;SDS011;6499;66.348;14.134;2023-03-25T00:52:06;1.03;;;0.80;;
12861;SDS011;6499;66.348;14.134;2023-03-25T00:54:33;1.47;;;0.70;;
12861;SDS011;6499;66.348;14.134;2023-03-25T00:56:59;0.80;;;0.80;;
12861;SDS011;6499;66.348;14.134;2023-03-25T00:59:26;1.33;;;1.00;;
12861;SDS011;6499;66.348;14.134;2023-03-25T01:01:53;1.73;;;0.80;;
12861;SDS011;6499;66.348;14.134;2023-03-25T01:04:20;2.07;;;0.97;;
12861;SDS011;6499;66.348;14.134;2023-03-25T01:06:48;2.70;;;0.80;;
12861;SDS011;6499;66.348;14.134;2023-03-25T01:09:16;3.63;;;1.23;;
12861;SDS011;6499;66.348;14.134;2023-03-25T01:11:43;2.43;;;1.27;;
12861;SDS011;6499;66.348;14.134;2023-03-25T01:14:11;3.13;;;1.90;;
12861;SDS011;6499;66.348;14.134;2023-03-25T01:16:38;2.47;;;1.17;;
12861;SDS011;6499;66.348;14.134;2023-03-25T01:19:05;0.90;;;0.77;;
12861;SDS011;6499;66.348;14.134;2023-03-25T01:21:31;1.77;;;0.80;;
12861;SDS011;6499;66.348;14.134;2023-03-25T01:24:01;1.03;;;0.77;;
12861;SDS011;6499;66.348;14.134;2023-03-25T01:26:28;2.37;;;0.87;;
12861;SDS011;6499;66.348;14.134;2023-03-25T01:28:54;1.43;;;0.73;;
12861;SDS011;6499;66.348;14.134;2023-03-25T01:31:21;0.70;;;0.57;;
12861;SDS011;6499;66.348;14.134;2023-03-25T01:33:50;0.63;;;0.63;;
12861;SDS011;6499;66.348;14.134;2023-03-25T01:36:16;0.80;;;0.77;;
12861;SDS011;6499;66.348;14.134;2023-03-25T01:38:45;0.67;;;0.60;;
12861;SDS011;6499;66.348;14.134;2023-03-25T01:41:13;1.07;;;0.50;;
12861;SDS011;6499;66.348;14.134;2023-03-25T01:43:40;1.87;;;0.60;;
12861;SDS011;6499;66.348;14.134;2023-03-25T01:46:08;1.47;;;0.60;;
12861;SDS011;6499;66.348;14.134;2023-03-25T01:48:38;1.10;;;0.60;;
12861;SDS011;6499;66.348;14.134;2023-03-25T01:51:08;0.60;;;0.60;;
12861;SDS011;6499;66.348;14.134;2023-03-25T01:53:35;0.50;;;0.50;;
12861;SDS011;6499;66.348;14.134;2023-03-25T01:56:02;1.43;;;0.80;;
12861;SDS011;6499;66.348;14.134;2023-03-25T01:58:32;0.60;;;0.50;;
12861;SDS011;6499;66.348;14.134;2023-03-25T02:01:00;0.57;;;0.57;;
12861;SDS011;6499;66.348;14.134;2023-03-25T02:03:27;0.70;;;0.60;;
12861;SDS011;6499;66.348;14.134;2023-03-25T02:05:57;1.87;;;0.90;;
12861;SDS011;6499;66.348;14.134;2023-03-25T02:08:27;0.83;;;0.60;;
12861;SDS011;6499;66.348;14.134;2023-03-25T02:10:56;0.63;;;0.50;;
12861;SDS011;6499;66.348;14.134;2023-03-25T02:13:23;0.50;;;0.50;;
12861;SDS011;6499;66.348;14.134;2023-03-25T02:15:55;0.60;;;0.60;;
12861;SDS011;6499;66.348;14.134;2023-03-25T02:18:29;0.60;;;0.60;;
12861;SDS011;6499;66.348;14.134;2023-03-25T02:29:24;0.90;;;0.70;;
12861;SDS011;6499;66.348;14.134;2023-03-25T02:31:56;1.43;;;0.73;;
12861;SDS011;6499;66.348;14.134;2023-03-25T02:34:32;0.50;;;0.50;;
12861;SDS011;6499;66.348;14.134;2023-03-25T02:37:12;0.67;;;0.60;;
12861;SDS011;6499;66.348;14.134;2023-03-25T02:39:45;2.00;;;0.70;;
12861;SDS011;6499;66.348;14.134;2023-03-25T02:42:13;1.57;;;1.13;;
12861;SDS011;6499;66.348;14.134;2023-03-25T02:44:41;0.43;;;0.43;;
12861;SDS011;6499;66.348;14.134;2023-03-25T02:47:14;0.70;;;0.63;;
12861;SDS011;6499;66.348;14.134;2023-03-25T02:49:41;1.90;;;0.70;;
12861;SDS011;6499;66.348;14.134;2023-03-25T02:52:10;1.80;;;0.60;;
12861;SDS011;6499;66.348;14.134;2023-03-25T02:54:38;0.93;;;0.60;;
12861;SDS011;6499;66.348;14.134;2023-03-25T02:57:07;0.83;;;0.70;;
12861;SDS011;6499;66.348;14.134;2023-03-25T02:59:34;0.70;;;0.67;;
12861;SDS011;6499;66.348;14.134;2023-03-25T03:02:05;0.57;;;0.50;;
12861;SDS011;6499;66.348;14.134;2023-03-25T03:04:43;0.60;;;0.60;;
12861;SDS011;6499;66.348;14.134;2023-03-25T03:07:09;0.60;;;0.50;;
12861;SDS011;6499;66.348;14.134;2023-03-25T03:09:37;0.60;;;0.50;;
12861;SDS011;6499;66.348;14.134;2023-03-25T03:12:13;1.40;;;0.63;;
12861;SDS011;6499;66.348;14.134;2023-03-25T03:14:43;0.70;;;0.50;;
12861;SDS011;6499;66.348;14.134;2023-03-25T03:17:16;0.53;;;0.53;;
12861;SDS011;6499;66.348;14.134;2023-03-25T03:19:47;1.70;;;0.60;;
12861;SDS011;6499;66.348;14.134;2023-03-25T03:22:20;0.67;;;0.57;;
12861;SDS011;6499;66.348;14.134;2023-03-25T03:24:51;0.90;;;0.70;;
12861;SDS011;6499;66.348;14.134;2023-03-25T03:27:23;0.57;;;0.43;;
12861;SDS011;6499;66.348;14.134;2023-03-25T03:29:54;0.70;;;0.60;;
12861;SDS011;6499;66.348;14.134;2023-03-25T03:32:25;0.60;;;0.50;;
12861;SDS011;6499;66.348;14.134;2023-03-25T03:34:53;0.60;;;0.57;;
12861;SDS011;6499;66.348;14.134;2023-03-25T03:37:23;0.50;;;0.50;;
12861;SDS011;6499;66.348;14.134;2023-03-25T03:39:51;0.80;;;0.53;;
12861;SDS011;6499;66.348;14.134;2023-03-25T03:42:22;1.37;;;0.50;;
12861;SDS011;6499;66.348;14.134;2023-03-25T03:44:52;3.67;;;0.90;;
12861;SDS011;6499;66.348;14.134;2023-03-25T03:47:20;0.57;;;0.57;;
12861;SDS011;6499;66.348;14.134;2023-03-25T03:49:49;0.60;;;0.50;;
12861;SDS011;6499;66.348;14.134;2023-03-25T03:52:16;0.70;;;0.57;;
12861;SDS011;6499;66.348;14.134;2023-03-25T03:54:46;0.53;;;0.53;;
12861;SDS011;6499;66.348;14.134;2023-03-25T03:57:17;0.50;;;0.50;;
12861;SDS011;6499;66.348;14.134;2023-03-25T03:59:48;1.20;;;0.60;;
12861;SDS011;6499;66.348;14.134;2023-03-25T04:02:19;0.77;;;0.50;;
12861;SDS011;6499;66.348;14.134;2023-03-25T04:04:48;0.90;;;0.60;;
12861;SDS011;6499;66.348;14.134;2023-03-25T04:07:15;1.20;;;0.60;;
12861;SDS011;6499;66.348;14.134;2023-03-25T04:09:45;0.67;;;0.50;;
12861;SDS011;6499;66.348;14.134;2023-03-25T04:12:19;0.67;;;0.50;;
12861;SDS011;6499;66.348;14.134;2023-03-25T04:14:48;1.00;;;0.60;;
12861;SDS011;6499;66.348;14.134;2023-03-25T04:17:15;1.33;;;0.67;;
12861;SDS011;6499;66.348;14.134;2023-03-25T04:19:41;2.50;;;0.63;;
12861;SDS011;6499;66.348;14.134;2023-03-25T04:22:13;0.77;;;0.60;;
12861;SDS011;6499;66.348;14.134;2023-03-25T04:24:40;0.90;;;0.67;;
12861;SDS011;6499;66.348;14.134;2023-03-25T04:27:08;0.70;;;0.43;;
12861;SDS011;6499;66.348;14.134;2023-03-25T04:29:37;0.53;;;0.50;;
12861;SDS011;6499;66.348;14.134;2023-03-25T04:32:07;1.53;;;0.70;;
12861;SDS011;6499;66.348;14.134;2023-03-25T04:34:34;0.67;;;0.50;;
12861;SDS011;6499;66.348;14.134;2023-03-25T04:37:00;0.83;;;0.60;;
12861;SDS011;6499;66.348;14.134;2023-03-25T04:39:27;1.37;;;0.50;;
12861;SDS011;6499;66.348;14.134;2023-03-25T04:41:53;0.50;;;0.50;;
12861;SDS011;6499;66.348;14.134;2023-03-25T04:44:20;1.27;;;0.70;;
12861;SDS011;6499;66.348;14.134;2023-03-25T04:46:49;0.53;;;0.47;;
12861;SDS011;6499;66.348;14.134;2023-03-25T04:49:18;0.47;;;0.40;;
12861;SDS011;6499;66.348;14.134;2023-03-25T04:51:45;0.67;;;0.50;;
12861;SDS011;6499;66.348;14.134;2023-03-25T04:54:13;1.00;;;0.60;;
12861;SDS011;6499;66.348;14.134;2023-03-25T04:56:40;1.40;;;0.60;;
12861;SDS011;6499;66.348;14.134;2023-03-25T04:59:06;0.73;;;0.70;;
12861;SDS011;6499;66.348;14.134;2023-03-25T05:01:34;1.37;;;0.70;;
12861;SDS011;6499;66.348;14.134;2023-03-25T05:04:06;0.70;;;0.70;;
12861;SDS011;6499;66.348;14.134;2023-03-25T05:06:35;0.50;;;0.50;;
12861;SDS011;6499;66.348;14.134;2023-03-25T05:09:03;1.50;;;0.70;;
12861;SDS011;6499;66.348;14.134;2023-03-25T05:11:29;0.93;;;0.60;;
12861;SDS011;6499;66.348;14.134;2023-03-25T05:13:56;1.40;;;1.30;;
12861;SDS011;6499;66.348;14.134;2023-03-25T05:16:23;0.73;;;0.70;;
12861;SDS011;6499;66.348;14.134;2023-03-25T05:18:50;0.70;;;0.70;;
12861;SDS011;6499;66.348;14.134;2023-03-25T05:21:17;0.90;;;0.70;;
12861;SDS011;6499;66.348;14.134;2023-03-25T05:23:45;0.77;;;0.77;;
12861;SDS011;6499;66.348;14.134;2023-03-25T05:26:11;0.90;;;0.90;;
12861;SDS011;6499;66.348;14.134;2023-03-25T05:28:38;1.17;;;0.70;;
12861;SDS011;6499;66.348;14.134;2023-03-25T05:31:04;1.63;;;1.10;;
12861;SDS011;6499;66.348;14.134;2023-03-25T05:33:32;3.60;;;2.70;;
12861;SDS011;6499;66.348;14.134;2023-03-25T05:35:59;3.23;;;2.93;;
12861;SDS011;6499;66.348;14.134;2023-03-25T05:38:25;7.07;;;4.50;;
12861;SDS011;6499;66.348;14.134;2023-03-25T05:40:53;4.03;;;3.13;;
12861;SDS011;6499;66.348;14.134;2023-03-25T05:43:20;3.23;;;2.00;;
12861;SDS011;6499;66.348;14.134;2023-03-25T05:45:47;2.03;;;1.87;;
12861;SDS011;6499;66.348;14.134;2023-03-25T05:48:14;1.40;;;1.30;;
12861;SDS011;6499;66.348;14.134;2023-03-25T05:50:40;1.50;;;1.17;;
12861;SDS011;6499;66.348;14.134;2023-03-25T05:53:07;1.93;;;1.20;;
12861;SDS011;6499;66.348;14.134;2023-03-25T05:55:37;1.97;;;1.20;;
12861;SDS011;6499;66.348;14.134;2023-03-25T05:58:05;2.27;;;1.63;;
12861;SDS011;6499;66.348;14.134;2023-03-25T06:00:32;1.93;;;1.60;;
12861;SDS011;6499;66.348;14.134;2023-03-25T06:03:02;4.10;;;1.40;;
12861;SDS011;6499;66.348;14.134;2023-03-25T06:05:28;2.73;;;1.20;;
12861;SDS011;6499;66.348;14.134;2023-03-25T06:07:55;2.20;;;1.10;;
12861;SDS011;6499;66.348;14.134;2023-03-25T06:10:22;1.77;;;1.10;;
12861;SDS011;6499;66.348;14.134;2023-03-25T06:12:49;0.83;;;0.83;;
12861;SDS011;6499;66.348;14.134;2023-03-25T06:15:18;1.17;;;0.90;;
12861;SDS011;6499;66.348;14.134;2023-03-25T06:17:52;1.53;;;0.70;;
12861;SDS011;6499;66.348;14.134;2023-03-25T06:20:19;1.00;;;0.90;;
12861;SDS011;6499;66.348;14.134;2023-03-25T06:22:45;1.33;;;0.90;;
12861;SDS011;6499;66.348;14.134;2023-03-25T06:25:13;0.70;;;0.70;;
12861;SDS011;6499;66.348;14.134;2023-03-25T06:27:41;0.70;;;0.60;;
12861;SDS011;6499;66.348;14.134;2023-03-25T06:30:08;1.10;;;1.00;;
12861;SDS011;6499;66.348;14.134;2023-03-25T06:32:36;0.80;;;0.80;;
12861;SDS011;6499;66.348;14.134;2023-03-25T06:35:03;0.87;;;0.83;;
12861;SDS011;6499;66.348;14.134;2023-03-25T06:37:30;1.00;;;0.80;;
12861;SDS011;6499;66.348;14.134;2023-03-25T06:39:56;0.63;;;0.63;;
12861;SDS011;6499;66.348;14.134;2023-03-25T06:42:24;1.00;;;0.80;;
12861;SDS011;6499;66.348;14.134;2023-03-25T06:44:50;1.17;;;0.50;;
12861;SDS011;6499;66.348;14.134;2023-03-25T06:47:17;1.67;;;0.90;;
12861;SDS011;6499;66.348;14.134;2023-03-25T06:49:45;0.73;;;0.73;;
12861;SDS011;6499;66.348;14.134;2023-03-25T06:52:11;3.30;;;2.30;;
12861;SDS011;6499;66.348;14.134;2023-03-25T06:54:38;2.73;;;1.87;;
12861;SDS011;6499;66.348;14.134;2023-03-25T06:57:04;2.90;;;1.23;;
12861;SDS011;6499;66.348;14.134;2023-03-25T06:59:31;1.03;;;0.60;;
12861;SDS011;6499;66.348;14.134;2023-03-25T07:01:57;2.30;;;1.00;;
12861;SDS011;6499;66.348;14.134;2023-03-25T07:04:24;1.07;;;0.80;;
12861;SDS011;6499;66.348;14.134;2023-03-25T07:06:52;2.30;;;0.90;;
12861;SDS011;6499;66.348;14.134;2023-03-25T07:09:18;1.50;;;1.00;;
12861;SDS011;6499;66.348;14.134;2023-03-25T07:11:45;0.90;;;0.90;;
12861;SDS011;6499;66.348;14.134;2023-03-25T07:14:11;1.37;;;1.07;;
12861;SDS011;6499;66.348;14.134;2023-03-25T07:16:38;0.97;;;0.70;;
12861;SDS011;6499;66.348;14.134;2023-03-25T07:19:04;1.20;;;0.80;;
12861;SDS011;6499;66.348;14.134;2023-03-25T07:21:31;1.03;;;0.80;;
12861;SDS011;6499;66.348;14.134;2023-03-25T07:23:59;0.80;;;0.80;;
12861;SDS011;6499;66.348;14.134;2023-03-25T07:26:25;1.27;;;0.80;;
12861;SDS011;6499;66.348;14.134;2023-03-25T07:28:52;5.60;;;3.80;;
12861;SDS011;6499;66.348;14.134;2023-03-25T07:31:18;1.13;;;0.90;;
12861;SDS011;6499;66.348;14.134;2023-03-25T07:33:45;1.10;;;0.80;;
12861;SDS011;6499;66.348;14.134;2023-03-25T07:36:12;2.27;;;0.80;;
12861;SDS011;6499;66.348;14.134;2023-03-25T07:38:38;1.10;;;0.93;;
12861;SDS011;6499;66.348;14.134;2023-03-25T07:41:07;0.87;;;0.87;;
12861;SDS011;6499;66.348;14.134;2023-03-25T07:43:34;0.60;;;0.50;;
12861;SDS011;6499;66.348;14.134;2023-03-25T07:46:00;0.70;;;0.60;;
12861;SDS011;6499;66.348;14.134;2023-03-25T07:48:27;0.60;;;0.60;;
12861;SDS011;6499;66.348;14.134;2023-03-25T07:50:53;1.00;;;0.60;;
12861;SDS011;6499;66.348;14.134;2023-03-25T07:53:20;0.50;;;0.50;;
12861;SDS011;6499;66.348;14.134;2023-03-25T07:55:47;1.60;;;0.90;;
12861;SDS011;6499;66.348;14.134;2023-03-25T07:58:16;1.00;;;0.70;;
12861;SDS011;6499;66.348;14.134;2023-03-25T08:00:43;0.80;;;0.70;;
12861;SDS011;6499;66.348;14.134;2023-03-25T08:03:10;0.93;;;0.83;;
12861;SDS011;6499;66.348;14.134;2023-03-25T08:05:37;1.20;;;0.97;;
12861;SDS011;6499;66.348;14.134;2023-03-25T08:08:03;0.83;;;0.77;;
12861;SDS011;6499;66.348;14.134;2023-03-25T08:10:30;1.40;;;0.90;;
12861;SDS011;6499;66.348;14.134;2023-03-25T08:12:59;1.43;;;0.90;;
12861;SDS011;6499;66.348;14.134;2023-03-25T08:15:27;0.70;;;0.70;;
12861;SDS011;6499;66.348;14.134;2023-03-25T08:17:53;0.70;;;0.70;;
12861;SDS011;6499;66.348;14.134;2023-03-25T08:20:20;0.70;;;0.70;;
12861;SDS011;6499;66.348;14.134;2023-03-25T08:22:46;1.20;;;0.70;;
12861;SDS011;6499;66.348;14.134;2023-03-25T08:25:20;1.13;;;0.90;;
12861;SDS011;6499;66.348;14.134;2023-03-25T08:27:46;1.37;;;0.80;;
12861;SDS011;6499;66.348;14.134;2023-03-25T08:30:13;0.70;;;0.70;;
12861;SDS011;6499;66.348;14.134;2023-03-25T08:32:41;0.60;;;0.60;;
12861;SDS011;6499;66.348;14.134;2023-03-25T08:35:10;0.67;;;0.60;;
12861;SDS011;6499;66.348;14.134;2023-03-25T08:37:36;2.00;;;0.70;;
12861;SDS011;6499;66.348;14.134;2023-03-25T08:40:03;1.77;;;1.00;;
12861;SDS011;6499;66.348;14.134;2023-03-25T08:42:32;4.03;;;1.10;;
12861;SDS011;6499;66.348;14.134;2023-03-25T08:44:59;3.27;;;1.00;;
12861;SDS011;6499;66.348;14.134;2023-03-25T08:47:25;1.43;;;0.80;;
12861;SDS011;6499;66.348;14.134;2023-03-25T08:49:53;0.83;;;0.50;;
12861;SDS011;6499;66.348;14.134;2023-03-25T08:52:20;0.60;;;0.60;;
12861;SDS011;6499;66.348;14.134;2023-03-25T08:54:46;0.70;;;0.70;;
12861;SDS011;6499;66.348;14.134;2023-03-25T08:57:13;0.93;;;0.70;;
12861;SDS011;6499;66.348;14.134;2023-03-25T08:59:39;0.83;;;0.53;;
12861;SDS011;6499;66.348;14.134;2023-03-25T09:02:06;1.00;;;0.77;;
12861;SDS011;6499;66.348;14.134;2023-03-25T09:04:32;0.70;;;0.70;;
12861;SDS011;6499;66.348;14.134;2023-03-25T09:07:01;0.70;;;0.60;;
12861;SDS011;6499;66.348;14.134;2023-03-25T09:09:27;1.13;;;0.90;;
12861;SDS011;6499;66.348;14.134;2023-03-25T09:11:54;1.60;;;0.80;;
12861;SDS011;6499;66.348;14.134;2023-03-25T09:14:20;0.87;;;0.60;;
12861;SDS011;6499;66.348;14.134;2023-03-25T09:16:46;2.03;;;0.87;;
12861;SDS011;6499;66.348;14.134;2023-03-25T09:19:13;2.10;;;0.90;;
12861;SDS011;6499;66.348;14.134;2023-03-25T09:21:39;1.93;;;1.00;;
12861;SDS011;6499;66.348;14.134;2023-03-25T09:24:07;1.30;;;0.80;;
12861;SDS011;6499;66.348;14.134;2023-03-25T09:26:35;1.37;;;0.60;;
12861;SDS011;6499;66.348;14.134;2023-03-25T09:29:02;1.10;;;0.57;;
12861;SDS011;6499;66.348;14.134;2023-03-25T09:31:28;2.00;;;0.70;;
12861;SDS011;6499;66.348;14.134;2023-03-25T09:33:55;0.40;;;0.40;;
12861;SDS011;6499;66.348;14.134;2023-03-25T09:36:21;0.60;;;0.47;;
12861;SDS011;6499;66.348;14.134;2023-03-25T09:38:48;0.40;;;0.40;;
12861;SDS011;6499;66.348;14.134;2023-03-25T09:41:36;1.17;;;0.70;;
12861;SDS011;6499;66.348;14.134;2023-03-25T09:44:08;0.80;;;0.60;;
12861;SDS011;6499;66.348;14.134;2023-03-25T09:46:39;1.50;;;0.80;;
12861;SDS011;6499;66.348;14.134;2023-03-25T09:49:07;1.27;;;0.90;;
12861;SDS011;6499;66.348;14.134;2023-03-25T09:51:38;1.23;;;0.80;;
12861;SDS011;6499;66.348;14.134;2023-03-25T09:54:07;1.17;;;0.80;;
12861;SDS011;6499;66.348;14.134;2023-03-25T09:56:41;2.93;;;0.70;;
12861;SDS011;6499;66.348;14.134;2023-03-25T09:59:09;0.77;;;0.77;;
12861;SDS011;6499;66.348;14.134;2023-03-25T10:01:38;2.97;;;0.63;;
12861;SDS011;6499;66.348;14.134;2023-03-25T10:04:09;0.70;;;0.60;;
12861;SDS011;6499;66.348;14.134;2023-03-25T10:06:38;1.20;;;0.67;;
12861;SDS011;6499;66.348;14.134;2023-03-25T10:09:13;0.60;;;0.50;;
12861;SDS011;6499;66.348;14.134;2023-03-25T10:11:46;0.60;;;0.50;;
12861;SDS011;6499;66.348;14.134;2023-03-25T10:14:16;0.47;;;0.40;;
12861;SDS011;6499;66.348;14.134;2023-03-25T10:16:48;1.03;;;0.60;;
12861;SDS011;6499;66.348;14.134;2023-03-25T10:19:23;0.40;;;0.40;;
12861;SDS011;6499;66.348;14.134;2023-03-25T10:21:51;0.77;;;0.43;;
12861;SDS011;6499;66.348;14.134;2023-03-25T10:24:19;0.63;;;0.40;;
12861;SDS011;6499;66.348;14.134;2023-03-25T10:26:49;0.57;;;0.40;;
12861;SDS011;6499;66.348;14.134;2023-03-25T10:29:19;0.40;;;0.40;;
12861;SDS011;6499;66.348;14.134;2023-03-25T10:31:49;0.80;;;0.50;;
12861;SDS011;6499;66.348;14.134;2023-03-25T10:34:17;0.90;;;0.70;;
12861;SDS011;6499;66.348;14.134;2023-03-25T10:36:44;0.80;;;0.60;;
12861;SDS011;6499;66.348;14.134;2023-03-25T10:39:14;2.50;;;0.80;;
12861;SDS011;6499;66.348;14.134;2023-03-25T10:41:43;1.90;;;0.80;;
12861;SDS011;6499;66.348;14.134;2023-03-25T10:44:12;0.80;;;0.60;;
12861;SDS011;6499;66.348;14.134;2023-03-25T10:46:39;0.87;;;0.60;;
12861;SDS011;6499;66.348;14.134;2023-03-25T10:49:12;1.70;;;0.67;;
12861;SDS011;6499;66.348;14.134;2023-03-25T10:51:40;3.70;;;0.77;;
12861;SDS011;6499;66.348;14.134;2023-03-25T10:54:07;0.90;;;0.60;;
12861;SDS011;6499;66.348;14.134;2023-03-25T10:56:35;2.37;;;0.67;;
12861;SDS011;6499;66.348;14.134;2023-03-25T10:59:05;1.63;;;0.80;;
12861;SDS011;6499;66.348;14.134;2023-03-25T11:01:37;1.53;;;0.90;;
12861;SDS011;6499;66.348;14.134;2023-03-25T11:04:05;1.47;;;0.80;;
12861;SDS011;6499;66.348;14.134;2023-03-25T11:06:33;1.37;;;0.90;;
12861;SDS011;6499;66.348;14.134;2023-03-25T11:09:09;1.23;;;0.90;;
12861;SDS011;6499;66.348;14.134;2023-03-25T11:11:37;3.30;;;0.80;;
12861;SDS011;6499;66.348;14.134;2023-03-25T11:14:04;0.93;;;0.80;;
12861;SDS011;6499;66.348;14.134;2023-03-25T11:16:31;1.03;;;0.60;;
12861;SDS011;6499;66.348;14.134;2023-03-25T11:19:00;1.23;;;0.80;;
12861;SDS011;6499;66.348;14.134;2023-03-25T11:21:29;0.77;;;0.77;;
12861;SDS011;6499;66.348;14.134;2023-03-25T11:23:56;2.43;;;0.93;;
12861;SDS011;6499;66.348;14.134;2023-03-25T11:26:24;2.30;;;1.10;;
12861;SDS011;6499;66.348;14.134;2023-03-25T11:28:54;2.77;;;1.00;;
12861;SDS011;6499;66.348;14.134;2023-03-25T11:31:21;1.40;;;1.00;;
12861;SDS011;6499;66.348;14.134;2023-03-25T11:34:01;0.87;;;0.70;;
12861;SDS011;6499;66.348;14.134;2023-03-25T11:36:37;1.10;;;0.80;;
12861;SDS011;6499;66.348;14.134;2023-03-25T11:39:12;2.13;;;1.10;;
12861;SDS011;6499;66.348;14.134;2023-03-25T11:41:41;1.43;;;0.90;;
12861;SDS011;6499;66.348;14.134;2023-03-25T11:44:14;1.87;;;1.10;;
12861;SDS011;6499;66.348;14.134;2023-03-25T11:46:43;1.27;;;1.17;;
12861;SDS011;6499;66.348;14.134;2023-03-25T11:49:13;1.70;;;1.30;;
12861;SDS011;6499;66.348;14.134;2023-03-25T11:51:44;3.20;;;1.50;;
12861;SDS011;6499;66.348;14.134;2023-03-25T11:54:12;2.77;;;1.60;;
12861;SDS011;6499;66.348;14.134;2023-03-25T11:56:40;2.73;;;1.63;;
12861;SDS011;6499;66.348;14.134;2023-03-25T11:59:07;2.70;;;1.80;;
12861;SDS011;6499;66.348;14.134;2023-03-25T12:01:36;3.33;;;1.60;;
12861;SDS011;6499;66.348;14.134;2023-03-25T12:04:05;2.33;;;1.50;;
12861;SDS011;6499;66.348;14.134;2023-03-25T12:06:32;2.70;;;1.47;;
12861;SDS011;6499;66.348;14.134;2023-03-25T12:09:02;2.20;;;1.30;;
12861;SDS011;6499;66.348;14.134;2023-03-25T12:11:34;2.43;;;1.00;;
12861;SDS011;6499;66.348;14.134;2023-03-25T12:16:47;1.50;;;1.37;;
12861;SDS011;6499;66.348;14.134;2023-03-25T12:19:17;3.40;;;1.57;;
12861;SDS011;6499;66.348;14.134;2023-03-25T12:21:55;2.20;;;1.40;;
12861;SDS011;6499;66.348;14.134;2023-03-25T12:24:30;2.97;;;1.60;;
12861;SDS011;6499;66.348;14.134;2023-03-25T12:27:07;3.77;;;1.60;;
12861;SDS011;6499;66.348;14.134;2023-03-25T12:29:35;2.33;;;1.43;;
12861;SDS011;6499;66.348;14.134;2023-03-25T12:32:07;2.33;;;1.50;;
12861;SDS011;6499;66.348;14.134;2023-03-25T12:34:39;2.90;;;1.63;;
12861;SDS011;6499;66.348;14.134;2023-03-25T12:37:12;3.27;;;1.80;;
12861;SDS011;6499;66.348;14.134;2023-03-25T12:39:46;3.80;;;1.63;;
12861;SDS011;6499;66.348;14.134;2023-03-25T12:42:19;2.33;;;1.20;;
12861;SDS011;6499;66.348;14.134;2023-03-25T12:44:52;1.23;;;0.90;;
12861;SDS011;6499;66.348;14.134;2023-03-25T12:47:23;2.10;;;0.97;;
12861;SDS011;6499;66.348;14.134;2023-03-25T12:49:54;1.07;;;0.80;;
12861;SDS011;6499;66.348;14.134;2023-03-25T12:52:23;2.27;;;0.97;;
12861;SDS011;6499;66.348;14.134;2023-03-25T12:55:00;1.10;;;0.70;;
12861;SDS011;6499;66.348;14.134;2023-03-25T12:57:32;0.80;;;0.70;;
12861;SDS011;6499;66.348;14.134;2023-03-25T13:00:08;0.70;;;0.50;;
12861;SDS011;6499;66.348;14.134;2023-03-25T13:02:48;1.70;;;0.80;;
12861;SDS011;6499;66.348;14.134;2023-03-25T13:05:18;0.60;;;0.60;;
12861;SDS011;6499;66.348;14.134;2023-03-25T13:07:49;0.90;;;0.70;;
12861;SDS011;6499;66.348;14.134;2023-03-25T13:10:20;1.03;;;0.70;;
12861;SDS011;6499;66.348;14.134;2023-03-25T13:12:47;2.37;;;0.97;;
12861;SDS011;6499;66.348;14.134;2023-03-25T13:15:16;1.20;;;0.80;;
12861;SDS011;6499;66.348;14.134;2023-03-25T13:17:44;1.50;;;0.97;;
12861;SDS011;6499;66.348;14.134;2023-03-25T13:20:12;2.00;;;1.10;;
12861;SDS011;6499;66.348;14.134;2023-03-25T13:22:40;1.93;;;0.70;;
12861;SDS011;6499;66.348;14.134;2023-03-25T13:25:15;1.90;;;1.10;;
12861;SDS011;6499;66.348;14.134;2023-03-25T13:27:44;1.90;;;1.10;;
12861;SDS011;6499;66.348;14.134;2023-03-25T13:30:13;1.63;;;1.20;;
12861;SDS011;6499;66.348;14.134;2023-03-25T13:32:42;1.63;;;1.00;;
12861;SDS011;6499;66.348;14.134;2023-03-25T13:35:12;2.93;;;1.20;;
12861;SDS011;6499;66.348;14.134;2023-03-25T13:37:40;1.87;;;1.20;;
12861;SDS011;6499;66.348;14.134;2023-03-25T13:40:16;1.57;;;0.93;;
12861;SDS011;6499;66.348;14.134;2023-03-25T13:42:50;1.37;;;1.20;;
12861;SDS011;6499;66.348;14.134;2023-03-25T13:45:20;2.20;;;1.00;;
12861;SDS011;6499;66.348;14.134;2023-03-25T13:47:49;1.37;;;0.60;;
12861;SDS011;6499;66.348;14.134;2023-03-25T13:50:17;1.50;;;0.80;;
12861;SDS011;6499;66.348;14.134;2023-03-25T13:52:47;1.23;;;0.80;;
12861;SDS011;6499;66.348;14.134;2023-03-25T13:55:15;1.57;;;0.83;;
12861;SDS011;6499;66.348;14.134;2023-03-25T14:00:35;1.60;;;1.20;;
12861;SDS011;6499;66.348;14.134;2023-03-25T14:03:26;2.07;;;1.30;;
12861;SDS011;6499;66.348;14.134;2023-03-25T14:06:03;2.40;;;1.20;;
12861;SDS011;6499;66.348;14.134;2023-03-25T14:11:20;0.93;;;0.70;;
12861;SDS011;6499;66.348;14.134;2023-03-25T14:13:50;1.77;;;1.00;;
12861;SDS011;6499;66.348;14.134;2023-03-25T14:16:19;6.20;;;1.13;;
12861;SDS011;6499;66.348;14.134;2023-03-25T14:18:47;1.10;;;0.80;;
12861;SDS011;6499;66.348;14.134;2023-03-25T14:21:22;1.17;;;0.80;;
12861;SDS011;6499;66.348;14.134;2023-03-25T14:23:58;1.40;;;1.03;;
12861;SDS011;6499;66.348;14.134;2023-03-25T14:26:26;1.17;;;0.87;;
12861;SDS011;6499;66.348;14.134;2023-03-25T14:28:53;2.00;;;1.13;;
12861;SDS011;6499;66.348;14.134;2023-03-25T14:31:27;1.10;;;0.80;;
12861;SDS011;6499;66.348;14.134;2023-03-25T14:39:37;1.57;;;0.73;;
12861;SDS011;6499;66.348;14.134;2023-03-25T14:42:08;1.80;;;1.00;;
12861;SDS011;6499;66.348;14.134;2023-03-25T14:44:38;1.97;;;1.63;;
12861;SDS011;6499;66.348;14.134;2023-03-25T14:49:53;1.80;;;1.07;;
12861;SDS011;6499;66.348;14.134;2023-03-25T14:52:26;1.13;;;1.00;;
12861;SDS011;6499;66.348;14.134;2023-03-25T14:54:54;1.50;;;1.00;;
12861;SDS011;6499;66.348;14.134;2023-03-25T14:57:21;1.40;;;1.10;;
12861;SDS011;6499;66.348;14.134;2023-03-25T14:59:49;2.97;;;1.37;;
12861;SDS011;6499;66.348;14.134;2023-03-25T15:02:19;2.40;;;1.50;;
12861;SDS011;6499;66.348;14.134;2023-03-25T15:04:50;2.80;;;1.90;;
12861;SDS011;6499;66.348;14.134;2023-03-25T15:07:19;8.10;;;3.67;;
12861;SDS011;6499;66.348;14.134;2023-03-25T15:10:03;4.03;;;2.10;;
12861;SDS011;6499;66.348;14.134;2023-03-25T15:12:31;3.90;;;2.43;;
12861;SDS011;6499;66.348;14.134;2023-03-25T15:15:02;3.37;;;1.90;;
12861;SDS011;6499;66.348;14.134;2023-03-25T15:17:38;4.10;;;1.43;;
12861;SDS011;6499;66.348;14.134;2023-03-25T15:20:11;3.10;;;1.50;;
12861;SDS011;6499;66.348;14.134;2023-03-25T15:22:41;2.97;;;1.73;;